createdAt,value
2023-05-19T00:02:13.117Z,9.60
2023-05-19T00:06:15.278Z,9.66
2023-05-19T00:10:10.643Z,9.71
2023-05-19T00:13:22.014Z,9.75
2023-05-19T00:16:58.675Z,9.76
2023-05-19T00:20:37.805Z,9.73
2023-05-19T00:24:13.801Z,9.73
2023-05-19T00:27:51.207Z,9.70
2023-05-19T00:31:29.322Z,9.64
2023-05-19T00:35:07.060Z,9.60
2023-05-19T00:38:44.455Z,9.55
2023-05-19T00:42:21.956Z,9.49
2023-05-19T00:46:00.618Z,9.50
2023-05-19T00:49:37.162Z,9.49
2023-05-19T00:53:18.335Z,9.47
2023-05-19T00:56:54.319Z,9.42
2023-05-19T01:00:31.060Z,9.41
2023-05-19T01:04:10.807Z,9.43
2023-05-19T01:07:47.316Z,9.45
2023-05-19T01:11:23.222Z,9.43
2023-05-19T01:15:02.184Z,9.40
2023-05-19T01:19:01.989Z,9.37
2023-05-19T01:22:32.301Z,9.31
2023-05-19T01:26:11.291Z,9.26
2023-05-19T01:29:48.905Z,9.24
2023-05-19T01:33:16.443Z,9.18
2023-05-19T01:36:50.027Z,9.12
2023-05-19T01:40:26.925Z,9.08
2023-05-19T01:44:02.719Z,9.07
2023-05-19T01:47:44.745Z,9.11
2023-05-19T01:51:18.279Z,9.13
2023-05-19T01:54:56.049Z,9.13
2023-05-19T01:58:46.803Z,9.18
2023-05-19T02:02:47.361Z,9.22
2023-05-19T02:06:17.990Z,9.27
2023-05-19T02:09:55.546Z,9.30
2023-05-19T02:13:08.548Z,9.31
2023-05-19T02:16:46.419Z,9.26
2023-05-19T02:20:19.361Z,9.19
2023-05-19T02:23:57.258Z,9.12
2023-05-19T02:27:39.287Z,9.07
2023-05-19T02:31:12.558Z,9.03
2023-05-19T02:34:50.206Z,8.98
2023-05-19T02:38:27.620Z,8.99
2023-05-19T02:42:05.613Z,9.01
2023-05-19T02:45:43.066Z,8.98
2023-05-19T02:49:20.989Z,8.97
2023-05-19T02:52:58.371Z,8.98
2023-05-19T02:56:36.043Z,8.99
2023-05-19T03:00:14.419Z,8.97
2023-05-19T03:03:51.558Z,8.94
2023-05-19T03:07:29.797Z,8.94
2023-05-19T03:11:06.894Z,8.94
2023-05-19T03:14:44.354Z,8.95
2023-05-19T03:18:24.654Z,8.99
2023-05-19T03:22:00.672Z,9.05
2023-05-19T03:25:37.441Z,9.11
2023-05-19T03:29:14.937Z,9.18
2023-05-19T03:32:53.340Z,9.23
2023-05-19T03:36:33.391Z,9.26
2023-05-19T03:40:09.003Z,9.28
2023-05-19T03:43:45.772Z,9.29
2023-05-19T03:47:23.428Z,9.31
2023-05-19T03:51:01.610Z,9.36
2023-05-19T03:54:39.693Z,9.39
2023-05-19T03:58:16.653Z,9.44
2023-05-19T04:01:54.845Z,9.51
2023-05-19T04:05:32.264Z,9.59
2023-05-19T04:09:14.284Z,9.65
2023-05-19T04:12:47.931Z,9.71
2023-05-19T04:16:25.584Z,9.76
2023-05-19T04:20:02.785Z,9.83
2023-05-19T04:23:40.448Z,9.90
2023-05-19T04:27:19.082Z,10.00
2023-05-19T04:30:58.849Z,10.06
2023-05-19T04:34:40.652Z,10.15
2023-05-19T04:38:12.259Z,10.24
2023-05-19T04:41:48.829Z,10.32
2023-05-19T04:45:26.876Z,10.42
2023-05-19T04:49:04.020Z,10.55
2023-05-19T04:52:42.637Z,10.68
2023-05-19T04:56:19.742Z,10.80
2023-05-19T05:00:00.557Z,10.93
2023-05-19T05:07:12.313Z,11.23
2023-05-19T05:10:52.753Z,11.39
2023-05-19T05:14:28.051Z,11.57
2023-05-19T05:18:05.935Z,11.77
2023-05-19T05:21:43.415Z,11.96
2023-05-19T05:25:21.276Z,12.15
2023-05-19T05:28:58.314Z,12.34
2023-05-19T05:32:36.348Z,12.52
2023-05-19T05:36:34.444Z,12.75
2023-05-19T05:39:51.604Z,12.86
2023-05-19T05:43:30.060Z,12.95
2023-05-19T05:47:07.186Z,12.97
2023-05-19T05:50:46.026Z,12.98
2023-05-19T05:54:25.619Z,12.98
2023-05-19T05:58:02.151Z,13.00
2023-05-19T06:01:37.530Z,13.03
2023-05-19T06:05:15.547Z,13.13
2023-05-19T06:08:52.956Z,13.23
2023-05-19T06:12:31.270Z,13.32
2023-05-19T06:16:08.220Z,13.42
2023-05-19T06:19:46.246Z,13.60
2023-05-19T06:23:26.976Z,13.79
2023-05-19T06:27:01.409Z,13.98
2023-05-19T06:30:38.636Z,14.12
2023-05-19T06:34:17.837Z,14.20
2023-05-19T06:37:55.924Z,14.41
2023-05-19T06:41:31.981Z,14.71
2023-05-19T06:45:10.033Z,15.01
2023-05-19T06:48:47.513Z,15.19
2023-05-19T06:52:25.099Z,15.45
2023-05-19T06:56:02.568Z,15.69
2023-05-19T06:59:43.725Z,15.84
2023-05-19T07:03:18.123Z,15.90
2023-05-19T07:06:55.785Z,16.04
2023-05-19T07:10:33.714Z,16.15
2023-05-19T07:14:11.064Z,16.25
2023-05-19T07:17:48.535Z,16.37
2023-05-19T07:21:26.269Z,16.58
2023-05-19T07:25:04.487Z,16.79
2023-05-19T07:28:43.503Z,17.00
2023-05-19T07:32:19.286Z,17.20
2023-05-19T07:35:57.152Z,17.40
2023-05-19T07:39:36.241Z,17.56
2023-05-19T07:43:14.442Z,17.81
2023-05-19T07:46:49.760Z,18.01
2023-05-19T07:50:27.788Z,18.12
2023-05-19T07:54:05.093Z,18.15
2023-05-19T07:57:43.152Z,18.16
2023-05-19T08:01:20.581Z,17.99
2023-05-19T08:04:58.650Z,17.81
2023-05-19T08:08:36.171Z,17.72
2023-05-19T08:12:14.402Z,17.63
2023-05-19T08:15:51.436Z,17.54
2023-05-19T08:19:29.482Z,17.42
2023-05-19T08:23:06.820Z,17.31
2023-05-19T08:26:44.615Z,17.17
2023-05-19T08:30:22.080Z,16.90
2023-05-19T08:34:00.037Z,16.69
2023-05-19T08:37:38.682Z,16.61
2023-05-19T08:41:16.939Z,16.63
2023-05-19T08:44:52.704Z,16.61
2023-05-19T08:48:33.940Z,16.50
2023-05-19T08:52:25.034Z,16.38
2023-05-19T08:56:10.654Z,16.30
2023-05-19T08:59:23.593Z,16.19
2023-05-19T09:03:17.429Z,16.10
2023-05-19T09:06:41.179Z,16.00
2023-05-19T09:10:16.812Z,16.01
2023-05-19T09:13:54.411Z,16.14
2023-05-19T09:17:34.107Z,16.07
2023-05-19T09:21:11.325Z,16.02
2023-05-19T09:24:47.825Z,16.10
2023-05-19T09:28:26.804Z,16.29
2023-05-19T09:32:05.400Z,16.40
2023-05-19T09:35:40.354Z,16.40
2023-05-19T09:39:19.964Z,16.34
2023-05-19T09:42:55.636Z,16.35
2023-05-19T09:46:36.125Z,16.52
2023-05-19T09:50:12.560Z,16.62
2023-05-19T09:53:48.794Z,16.55
2023-05-19T09:57:29.461Z,16.38
2023-05-19T10:01:05.148Z,16.17
2023-05-19T10:04:44.201Z,16.10
2023-05-19T10:08:19.930Z,16.25
2023-05-19T10:11:58.671Z,16.40
2023-05-19T10:15:46.709Z,16.41
2023-05-19T10:19:14.295Z,16.32
2023-05-19T10:22:50.331Z,16.25
2023-05-19T10:26:28.752Z,16.22
2023-05-19T10:30:15.657Z,16.19
2023-05-19T10:34:04.451Z,16.04
2023-05-19T10:37:41.849Z,15.85
2023-05-19T10:41:12.458Z,15.91
2023-05-19T10:45:04.348Z,16.02
2023-05-19T10:48:17.390Z,15.86
2023-05-19T10:51:57.689Z,15.68
2023-05-19T10:55:53.554Z,15.57
2023-05-19T10:59:06.987Z,15.54
2023-05-19T11:03:13.886Z,15.60
2023-05-19T11:06:30.233Z,15.42
2023-05-19T11:10:00.195Z,15.21
2023-05-19T11:13:37.683Z,15.02
2023-05-19T11:17:16.650Z,14.91
2023-05-19T11:21:01.202Z,14.83
2023-05-19T11:24:35.261Z,14.77
2023-05-19T11:28:08.641Z,14.75
2023-05-19T11:31:46.521Z,14.73
2023-05-19T11:35:23.497Z,14.65
2023-05-19T11:39:02.630Z,14.57
2023-05-19T11:42:39.436Z,14.48
2023-05-19T11:46:16.950Z,14.41
2023-05-19T11:49:56.792Z,14.35
2023-05-19T11:53:36.183Z,14.36
2023-05-19T11:57:11.055Z,14.35
2023-05-19T12:00:48.004Z,14.27
2023-05-19T12:04:25.525Z,14.25
2023-05-19T12:08:03.548Z,14.24
2023-05-19T12:11:40.944Z,14.19
2023-05-19T12:15:25.016Z,14.09
2023-05-19T12:19:15.142Z,13.96
2023-05-19T12:22:34.984Z,13.91
2023-05-19T12:26:12.001Z,13.90
2023-05-19T12:29:53.909Z,13.89
2023-05-19T12:33:26.812Z,13.88
2023-05-19T12:37:05.094Z,13.84
2023-05-19T12:40:45.598Z,13.82
2023-05-19T12:44:21.336Z,13.84
2023-05-19T12:47:57.821Z,13.89
2023-05-19T12:51:34.889Z,14.02
2023-05-19T12:55:14.486Z,14.14
2023-05-19T12:58:54.823Z,14.29
2023-05-19T13:02:28.388Z,14.40
2023-05-19T13:06:05.914Z,14.48
2023-05-19T13:09:43.126Z,14.58
2023-05-19T13:13:22.276Z,14.68
2023-05-19T13:16:58.886Z,14.67
2023-05-19T13:20:40.988Z,14.63
2023-05-19T13:24:14.292Z,14.56
2023-05-19T13:27:51.685Z,14.55
2023-05-19T13:31:29.740Z,14.52
2023-05-19T13:35:07.789Z,14.50
2023-05-19T13:38:44.755Z,14.46
2023-05-19T13:42:22.411Z,14.48
2023-05-19T13:46:00.139Z,14.47
2023-05-19T13:49:37.818Z,14.49
2023-05-19T13:53:15.283Z,14.43
2023-05-19T13:56:53.103Z,14.36
2023-05-19T14:00:32.526Z,14.30
2023-05-19T14:04:08.976Z,14.26
2023-05-19T14:07:47.069Z,14.11
2023-05-19T14:11:23.810Z,14.06
2023-05-19T14:15:02.200Z,14.05
2023-05-19T14:18:39.098Z,13.95
2023-05-19T14:22:17.453Z,13.77
2023-05-19T14:25:54.554Z,13.67
2023-05-19T14:29:32.292Z,13.56
2023-05-19T14:33:09.994Z,13.48
2023-05-19T14:36:48.913Z,13.46
2023-05-19T14:40:25.290Z,13.42
2023-05-19T14:44:02.865Z,13.41
2023-05-19T14:47:40.844Z,13.36
2023-05-19T14:51:18.176Z,13.34
2023-05-19T14:54:57.188Z,13.29
2023-05-19T14:58:33.744Z,13.26
2023-05-19T15:02:12.416Z,13.27
2023-05-19T15:05:49.794Z,13.26
2023-05-19T15:09:26.744Z,13.18
2023-05-19T15:13:05.098Z,13.15
2023-05-19T15:16:41.820Z,13.11
2023-05-19T15:20:20.198Z,13.07
2023-05-19T15:23:57.303Z,13.08
2023-05-19T15:27:36.749Z,13.05
2023-05-19T15:31:12.546Z,13.02
2023-05-19T15:34:50.190Z,12.93
2023-05-19T15:40:55.314Z,12.88
2023-05-19T15:42:05.500Z,12.87
2023-05-19T15:45:43.616Z,12.83
2023-05-19T15:49:20.754Z,12.74
2023-05-19T15:52:58.343Z,12.68
2023-05-19T15:56:36.493Z,12.64
2023-05-19T16:00:14.987Z,12.57
2023-05-19T16:03:51.924Z,12.51
2023-05-19T16:07:29.802Z,12.41
2023-05-19T16:11:07.281Z,12.36
2023-05-19T16:14:44.631Z,12.31
2023-05-19T16:18:22.914Z,12.25
2023-05-19T16:22:00.137Z,12.20
2023-05-19T16:25:37.531Z,12.15
2023-05-19T16:29:15.259Z,12.10
2023-05-19T16:32:56.404Z,12.05
2023-05-19T16:36:31.961Z,11.97
2023-05-19T16:40:10.228Z,11.90
2023-05-19T16:43:46.336Z,11.83
2023-05-19T16:47:23.767Z,11.77
2023-05-19T16:51:01.600Z,11.74
2023-05-19T16:54:38.885Z,11.73
2023-05-19T16:58:16.986Z,11.71
2023-05-19T17:01:54.907Z,11.67
2023-05-19T17:05:34.077Z,11.62
2023-05-19T17:09:09.579Z,11.58
2023-05-19T17:12:47.221Z,11.55
2023-05-19T17:16:24.855Z,11.54
2023-05-19T17:20:03.219Z,11.53
2023-05-19T17:23:40.492Z,11.53
2023-05-19T17:27:18.224Z,11.54
2023-05-19T17:30:55.951Z,11.53
2023-05-19T17:34:33.266Z,11.54
2023-05-19T17:38:11.376Z,11.54
2023-05-19T17:41:48.854Z,11.53
2023-05-19T17:45:26.886Z,11.52
2023-05-19T17:49:04.431Z,11.48
2023-05-19T17:52:42.066Z,11.46
2023-05-19T17:56:22.540Z,11.45
2023-05-19T17:59:57.298Z,11.47
2023-05-19T18:03:36.193Z,11.51
2023-05-19T18:07:14.424Z,11.55
2023-05-19T18:10:52.875Z,11.59
2023-05-19T18:14:28.006Z,11.61
2023-05-19T18:18:07.921Z,11.57
2023-05-19T18:21:42.803Z,11.50
2023-05-19T18:25:21.425Z,11.44
2023-05-19T18:29:02.623Z,11.39
2023-05-19T18:32:55.216Z,11.40
2023-05-19T18:36:15.507Z,11.43
2023-05-19T18:39:51.594Z,11.47
2023-05-19T18:43:30.645Z,11.50
2023-05-19T18:47:06.824Z,11.52
2023-05-19T18:50:45.055Z,11.53
2023-05-19T18:54:22.949Z,11.52
2023-05-19T18:58:00.246Z,11.46
2023-05-19T19:01:37.761Z,11.37
2023-05-19T19:05:15.829Z,11.30
2023-05-19T19:08:52.950Z,11.25
2023-05-19T19:12:31.255Z,11.22
2023-05-19T19:16:08.397Z,11.20
2023-05-19T19:19:46.430Z,11.19
2023-05-19T19:23:24.413Z,11.16
2023-05-19T19:27:01.860Z,11.15
2023-05-19T19:30:39.256Z,11.14
2023-05-19T19:34:19.862Z,11.14
2023-05-19T19:37:54.574Z,11.12
2023-05-19T19:41:33.667Z,11.11
2023-05-19T19:45:14.038Z,11.10
2023-05-19T19:48:47.470Z,11.09
2023-05-19T19:52:26.034Z,11.08
2023-05-19T19:56:04.519Z,11.08
2023-05-19T19:59:40.226Z,11.07
2023-05-19T20:03:18.191Z,11.06
2023-05-19T20:06:56.008Z,11.05
2023-05-19T20:10:33.961Z,11.05
2023-05-19T20:14:11.446Z,11.05
2023-05-19T20:17:49.171Z,11.06
2023-05-19T20:21:26.239Z,11.06
2023-05-19T20:25:05.048Z,11.07
2023-05-19T20:28:42.061Z,11.08
2023-05-19T20:32:19.811Z,11.10
2023-05-19T20:35:57.566Z,11.12
2023-05-19T20:39:34.996Z,11.12
2023-05-19T20:43:12.876Z,11.12
2023-05-19T20:46:50.716Z,11.12
2023-05-19T20:50:28.434Z,11.12
2023-05-19T20:54:07.579Z,11.13
2023-05-19T20:57:44.862Z,11.12
2023-05-19T21:01:21.024Z,11.12
2023-05-19T21:04:58.867Z,11.12
2023-05-19T21:08:36.305Z,11.11
2023-05-19T21:12:16.415Z,11.11
2023-05-19T21:15:51.809Z,11.12
2023-05-19T21:19:29.435Z,11.12
2023-05-19T21:23:06.932Z,11.12
2023-05-19T21:26:44.620Z,11.12
2023-05-19T21:30:23.906Z,11.12
2023-05-19T21:34:00.257Z,11.11
2023-05-19T21:37:38.136Z,11.11
2023-05-19T21:41:15.369Z,11.09
2023-05-19T21:44:52.896Z,11.06
2023-05-19T21:48:31.310Z,11.04
2023-05-19T21:52:08.721Z,11.01
2023-05-19T21:55:46.123Z,10.99
2023-05-19T21:59:24.937Z,10.95
2023-05-19T22:03:01.217Z,10.94
2023-05-19T22:06:39.346Z,10.94
2023-05-19T22:10:16.626Z,10.93
2023-05-19T22:13:57.125Z,10.92
2023-05-19T22:17:32.381Z,10.93
2023-05-19T22:21:10.537Z,10.93
2023-05-19T22:24:47.048Z,10.92
2023-05-19T22:28:25.217Z,10.91
2023-05-19T22:32:02.935Z,10.89
2023-05-19T22:35:40.383Z,10.88
2023-05-19T22:39:18.002Z,10.88
2023-05-19T22:42:55.781Z,10.90
2023-05-19T22:46:34.491Z,10.90
2023-05-19T22:50:12.534Z,10.91
2023-05-19T22:53:49.318Z,10.91
2023-05-19T22:57:26.648Z,10.92
2023-05-19T23:01:04.448Z,10.93
2023-05-19T23:04:42.980Z,10.94
2023-05-19T23:08:19.433Z,10.95
2023-05-19T23:11:57.186Z,10.95
2023-05-19T23:15:34.984Z,10.96
2023-05-19T23:19:12.429Z,10.97
2023-05-19T23:22:50.106Z,10.96
2023-05-19T23:26:27.683Z,10.95
2023-05-19T23:30:06.694Z,10.94
2023-05-19T23:33:43.427Z,10.94
2023-05-19T23:37:20.593Z,10.92
2023-05-19T23:40:58.434Z,10.89
2023-05-19T23:44:35.933Z,10.87
2023-05-19T23:48:13.852Z,10.84
2023-05-19T23:51:51.392Z,10.82
2023-05-19T23:55:29.235Z,10.83
2023-05-19T23:59:06.763Z,10.85
